createdAt,value
2018-08-06T00:01:02.596Z,20.50
2018-08-06T00:04:09.445Z,20.60
2018-08-06T00:10:24.823Z,20.60
2018-08-06T00:16:37.970Z,20.40
2018-08-06T00:22:51.410Z,20.60
2018-08-06T00:29:04.864Z,20.40
2018-08-06T00:35:18.551Z,20.30
2018-08-06T00:38:25.764Z,20.20
2018-08-06T00:41:32.663Z,20.30
2018-08-06T00:44:39.176Z,20.20
2018-08-06T00:50:53.902Z,20.10
2018-08-06T00:54:00.935Z,20.10
2018-08-06T00:57:07.777Z,20.10
2018-08-06T01:00:19.151Z,20.00
2018-08-06T01:03:26.062Z,20.10
2018-08-06T01:06:32.907Z,19.90
2018-08-06T01:09:39.774Z,19.90
2018-08-06T01:12:47.948Z,19.90
2018-08-06T01:15:53.679Z,20.00
2018-08-06T01:19:00.524Z,20.00
2018-08-06T01:28:21.397Z,19.90
2018-08-06T01:31:28.371Z,19.70
2018-08-06T01:34:35.544Z,19.70
2018-08-06T01:43:55.532Z,19.60
2018-08-06T01:47:02.384Z,19.70
2018-08-06T01:50:10.570Z,19.60
2018-08-06T01:53:17.815Z,19.60
2018-08-06T01:56:24.321Z,19.50
2018-08-06T02:02:37.737Z,19.50
2018-08-06T02:05:44.240Z,19.50
2018-08-06T02:08:51.087Z,19.60
2018-08-06T02:15:06.402Z,19.40
2018-08-06T02:21:20.558Z,19.10
2018-08-06T02:27:34.467Z,19.30
2018-08-06T02:30:41.313Z,19.30
2018-08-06T02:33:48.209Z,19.30
2018-08-06T02:36:55.351Z,19.20
2018-08-06T02:40:02.207Z,19.40
2018-08-06T02:43:08.756Z,19.30
2018-08-06T02:46:15.600Z,19.40
2018-08-06T02:49:22.783Z,19.40
2018-08-06T02:52:29.693Z,19.20
2018-08-06T02:55:36.531Z,19.20
2018-08-06T02:58:43.852Z,19.30
2018-08-06T03:01:50.748Z,19.20
2018-08-06T03:04:57.927Z,19.30
2018-08-06T03:08:04.776Z,19.30
2018-08-06T03:14:18.226Z,19.00
2018-08-06T03:17:24.757Z,18.90
2018-08-06T03:20:31.274Z,18.80
2018-08-06T03:26:44.732Z,18.90
2018-08-06T03:29:51.926Z,19.10
2018-08-06T03:36:05.407Z,19.10
2018-08-06T03:39:12.282Z,19.10
2018-08-06T03:42:19.697Z,19.00
2018-08-06T03:45:26.208Z,18.90
2018-08-06T03:48:33.065Z,18.90
2018-08-06T03:51:40.351Z,18.90
2018-08-06T03:54:47.201Z,19.00
2018-08-06T04:01:00.549Z,18.70
2018-08-06T04:07:14.588Z,18.80
2018-08-06T04:10:21.442Z,18.80
2018-08-06T04:13:28.880Z,18.80
2018-08-06T04:16:46.057Z,18.90
2018-08-06T04:19:52.891Z,18.90
2018-08-06T04:26:07.595Z,18.90
2018-08-06T04:29:14.747Z,18.90
2018-08-06T04:35:28.128Z,19.00
2018-08-06T04:41:41.511Z,18.90
2018-08-06T04:44:48.267Z,18.90
2018-08-06T04:51:01.288Z,18.90
2018-08-06T04:54:08.177Z,18.90
2018-08-06T05:00:21.785Z,18.90
2018-08-06T05:03:28.682Z,19.00
2018-08-06T05:06:35.530Z,19.00
2018-08-06T05:09:44.052Z,19.00
2018-08-06T05:19:03.876Z,19.10
2018-08-06T05:22:10.799Z,19.20
2018-08-06T05:25:17.910Z,19.30
2018-08-06T05:28:24.741Z,19.40
2018-08-06T05:31:31.344Z,19.30
2018-08-06T05:37:45.500Z,19.50
2018-08-06T05:40:52.326Z,19.80
2018-08-06T05:43:58.871Z,20.20
2018-08-06T05:47:06.080Z,20.30
2018-08-06T05:50:14.422Z,20.60
2018-08-06T05:53:21.761Z,20.90
2018-08-06T05:56:28.594Z,21.20
2018-08-06T06:02:42.011Z,21.70
2018-08-06T06:05:48.867Z,22.00
2018-08-06T06:12:02.762Z,22.50
2018-08-06T06:15:14.418Z,22.70
2018-08-06T06:18:21.253Z,22.80
2018-08-06T06:21:28.270Z,22.90
2018-08-06T06:24:35.135Z,23.10
2018-08-06T06:27:43.009Z,23.20
2018-08-06T06:30:50.135Z,23.30
2018-08-06T06:37:03.606Z,23.80
2018-08-06T06:40:10.479Z,24.00
2018-08-06T06:46:23.944Z,24.10
2018-08-06T06:49:30.787Z,23.80
2018-08-06T06:52:37.500Z,23.50
2018-08-06T06:55:44.366Z,23.20
2018-08-06T06:58:51.560Z,23.10
2018-08-06T07:01:58.508Z,22.90
2018-08-06T07:05:06.465Z,22.70
2018-08-06T07:11:19.667Z,22.40
2018-08-06T07:14:26.527Z,22.40
2018-08-06T07:17:33.377Z,22.50
2018-08-06T07:23:46.490Z,22.70
2018-08-06T07:26:53.338Z,22.70
2018-08-06T07:30:00.204Z,22.90
2018-08-06T07:33:07.107Z,23.00
2018-08-06T07:36:14.289Z,23.00
2018-08-06T07:39:21.125Z,23.20
2018-08-06T07:45:34.528Z,23.30
2018-08-06T07:48:41.390Z,23.20
2018-08-06T07:51:48.222Z,23.30
2018-08-06T07:54:55.065Z,23.20
2018-08-06T07:58:01.593Z,23.20
2018-08-06T08:01:08.433Z,23.20
2018-08-06T08:07:22.007Z,23.30
2018-08-06T08:10:28.522Z,23.40
2018-08-06T08:16:41.921Z,23.50
2018-08-06T08:19:48.842Z,23.60
2018-08-06T08:26:02.207Z,23.60
2018-08-06T08:32:15.579Z,23.50
2018-08-06T08:38:35.129Z,23.60
2018-08-06T08:41:42.018Z,23.60
2018-08-06T08:44:48.830Z,23.70
2018-08-06T08:51:02.176Z,24.00
2018-08-06T08:57:15.892Z,24.10
2018-08-06T09:00:23.568Z,24.20
2018-08-06T09:03:30.419Z,24.30
2018-08-06T09:09:43.775Z,24.40
2018-08-06T09:22:09.991Z,24.50
2018-08-06T09:25:16.972Z,24.50
2018-08-06T09:31:30.352Z,24.70
2018-08-06T09:34:37.187Z,24.70
2018-08-06T09:37:44.203Z,24.80
2018-08-06T09:43:57.273Z,24.90
2018-08-06T09:53:18.808Z,25.00
2018-08-06T09:56:25.693Z,25.10
2018-08-06T10:02:39.096Z,25.40
2018-08-06T10:05:46.277Z,25.50
2018-08-06T10:11:59.647Z,25.70
2018-08-06T10:15:07.563Z,25.60
2018-08-06T10:18:14.419Z,25.70
2018-08-06T10:21:21.266Z,25.70
2018-08-06T10:24:28.140Z,25.80
2018-08-06T10:27:34.948Z,26.00
2018-08-06T10:30:41.977Z,26.30
2018-08-06T10:33:48.767Z,26.40
2018-08-06T10:40:02.145Z,26.70
2018-08-06T10:46:15.505Z,27.00
2018-08-06T10:49:22.800Z,27.20
2018-08-06T10:52:29.643Z,27.10
2018-08-06T10:55:36.524Z,27.00
2018-08-06T10:58:43.426Z,27.10
2018-08-06T11:04:57.193Z,27.00
2018-08-06T11:11:10.336Z,27.10
2018-08-06T11:20:30.434Z,27.40
2018-08-06T11:23:37.716Z,27.40
2018-08-06T11:26:44.549Z,27.50
2018-08-06T11:36:04.929Z,27.50
2018-08-06T11:39:12.804Z,27.70
2018-08-06T11:42:19.644Z,27.70
2018-08-06T11:45:26.522Z,27.70
2018-08-06T11:48:33.728Z,27.80
2018-08-06T11:54:48.343Z,28.20
2018-08-06T11:57:55.220Z,28.50
2018-08-06T12:01:02.066Z,28.90
2018-08-06T12:04:09.323Z,29.10
2018-08-06T12:07:16.211Z,29.10
2018-08-06T12:10:23.053Z,29.10
2018-08-06T12:13:30.008Z,29.30
2018-08-06T12:16:36.883Z,29.50
2018-08-06T12:19:43.727Z,29.60
2018-08-06T12:22:52.036Z,29.70
2018-08-06T12:25:58.900Z,29.70
2018-08-06T12:32:12.587Z,30.10
2018-08-06T12:35:19.550Z,30.40
2018-08-06T12:38:55.965Z,30.50
2018-08-06T12:42:02.798Z,30.80
2018-08-06T12:45:11.451Z,31.20
2018-08-06T12:54:31.581Z,33.20
2018-08-06T12:57:39.350Z,33.90
2018-08-06T13:00:46.212Z,34.50
2018-08-06T13:06:59.362Z,35.20
2018-08-06T13:13:13.696Z,35.00
2018-08-06T13:16:20.930Z,35.30
2018-08-06T13:22:34.322Z,34.80
2018-08-06T13:25:42.687Z,34.60
2018-08-06T13:28:48.661Z,34.50
2018-08-06T13:38:09.011Z,33.90
2018-08-06T13:44:22.155Z,32.70
2018-08-06T13:47:28.967Z,32.50
2018-08-06T13:53:42.811Z,32.40
2018-08-06T13:56:50.114Z,32.20
2018-08-06T13:59:57.372Z,31.90
2018-08-06T14:03:04.211Z,31.80
2018-08-06T14:06:11.459Z,31.80
2018-08-06T14:12:25.304Z,31.40
2018-08-06T14:15:32.576Z,31.30
2018-08-06T14:18:39.427Z,31.10
2018-08-06T14:21:46.645Z,31.20
2018-08-06T14:24:54.079Z,31.20
2018-08-06T14:28:01.401Z,31.10
2018-08-06T14:31:08.474Z,31.00
2018-08-06T14:34:15.800Z,31.10
2018-08-06T14:37:22.582Z,31.10
2018-08-06T14:43:36.438Z,31.00
2018-08-06T14:46:43.009Z,30.90
2018-08-06T14:49:49.844Z,30.80
2018-08-06T14:56:03.005Z,30.90
2018-08-06T15:02:16.775Z,30.90
2018-08-06T15:08:30.149Z,31.00
2018-08-06T15:11:37.069Z,31.00
2018-08-06T15:14:43.874Z,31.00
2018-08-06T15:17:50.777Z,31.00
2018-08-06T15:20:57.383Z,31.00
2018-08-06T15:24:04.220Z,31.00
2018-08-06T15:30:18.018Z,31.00
2018-08-06T15:33:24.985Z,31.00
2018-08-06T15:39:38.448Z,31.00
2018-08-06T15:42:45.365Z,30.90
2018-08-06T15:45:52.229Z,30.80
2018-08-06T15:48:59.104Z,30.70
2018-08-06T15:52:06.026Z,30.70
2018-08-06T15:55:13.174Z,30.60
2018-08-06T15:58:20.433Z,30.60
2018-08-06T16:04:34.258Z,30.60
2018-08-06T16:07:41.507Z,30.60
2018-08-06T16:13:55.304Z,30.50
2018-08-06T16:17:02.578Z,30.50
2018-08-06T16:20:12.144Z,30.70
2018-08-06T16:23:19.281Z,30.60
2018-08-06T16:26:25.826Z,30.60
2018-08-06T16:29:33.273Z,30.50
2018-08-06T16:32:39.888Z,30.50
2018-08-06T16:35:46.722Z,30.40
2018-08-06T16:45:07.736Z,30.30
2018-08-06T16:48:14.561Z,30.20
2018-08-06T16:51:21.431Z,30.30
2018-08-06T16:54:28.357Z,30.20
2018-08-06T16:57:35.743Z,30.20
2018-08-06T17:00:42.583Z,30.10
2018-08-06T17:06:56.267Z,29.90
2018-08-06T17:10:03.139Z,29.90
2018-08-06T17:13:09.764Z,29.80
2018-08-06T17:16:16.591Z,29.80
2018-08-06T17:22:30.179Z,29.70
2018-08-06T17:25:37.391Z,29.80
2018-08-06T17:28:44.529Z,29.70
2018-08-06T17:34:58.258Z,29.70
2018-08-06T17:38:05.597Z,29.70
2018-08-06T17:41:12.584Z,29.70
2018-08-06T17:44:19.432Z,29.50
2018-08-06T17:53:39.048Z,29.30
2018-08-06T17:59:52.419Z,29.20
2018-08-06T18:06:06.711Z,29.10
2018-08-06T18:09:13.920Z,29.00
2018-08-06T18:12:21.153Z,28.80
2018-08-06T18:15:28.005Z,28.60
2018-08-06T18:18:34.843Z,28.40
2018-08-06T18:24:48.624Z,28.30
2018-08-06T18:31:02.774Z,28.20
2018-08-06T18:37:16.301Z,28.20
2018-08-06T18:43:30.257Z,28.00
2018-08-06T18:46:37.388Z,28.00
2018-08-06T18:52:51.483Z,27.90
2018-08-06T18:55:58.335Z,27.80
2018-08-06T19:02:11.702Z,27.60
2018-08-06T19:05:18.655Z,27.60
2018-08-06T19:08:25.837Z,27.50
2018-08-06T19:11:32.657Z,27.40
2018-08-06T19:17:51.739Z,27.20
2018-08-06T19:20:59.037Z,27.10
2018-08-06T19:27:17.799Z,26.90
2018-08-06T19:30:29.894Z,26.90
2018-08-06T19:33:36.723Z,26.70
2018-08-06T19:36:48.766Z,26.70
2018-08-06T19:39:55.594Z,26.70
2018-08-06T19:49:25.926Z,26.60
2018-08-06T19:52:32.829Z,26.50
2018-08-06T19:58:51.609Z,26.40
2018-08-06T20:01:58.496Z,26.40
2018-08-06T20:08:12.297Z,26.30
2018-08-06T20:11:19.274Z,26.20
2018-08-06T20:14:26.139Z,26.10
2018-08-06T20:20:39.744Z,26.00
2018-08-06T20:23:46.792Z,26.00
2018-08-06T20:26:53.629Z,25.90
2018-08-06T20:30:00.514Z,25.80
2018-08-06T20:33:07.746Z,25.80
2018-08-06T20:36:14.307Z,25.50
2018-08-06T20:39:20.836Z,25.50
2018-08-06T20:42:27.758Z,25.50
2018-08-06T20:45:34.582Z,25.50
2018-08-06T20:48:41.445Z,25.40
2018-08-06T20:54:55.072Z,25.20
2018-08-06T20:58:02.829Z,25.20
2018-08-06T21:01:09.682Z,25.20
2018-08-06T21:04:16.507Z,25.20
2018-08-06T21:07:23.355Z,25.10
2018-08-06T21:10:30.187Z,25.00
2018-08-06T21:13:37.121Z,24.90
2018-08-06T21:16:44.915Z,24.90
2018-08-06T21:19:52.053Z,24.90
2018-08-06T21:22:59.511Z,24.80
2018-08-06T21:26:06.917Z,24.80
2018-08-06T21:29:14.061Z,24.60
2018-08-06T21:32:21.102Z,24.60
2018-08-06T21:35:28.666Z,24.50
2018-08-06T21:38:35.499Z,24.50
2018-08-06T21:41:42.359Z,24.50
2018-08-06T21:44:49.196Z,24.50
2018-08-06T21:51:02.594Z,24.40
2018-08-06T21:54:09.780Z,24.40
2018-08-06T21:57:16.274Z,24.30
2018-08-06T22:00:41.954Z,24.20
2018-08-06T22:03:48.864Z,24.20
2018-08-06T22:06:55.769Z,24.10
2018-08-06T22:10:02.604Z,24.10
2018-08-06T22:13:10.136Z,24.00
2018-08-06T22:16:16.968Z,24.00
2018-08-06T22:19:26.871Z,24.00
2018-08-06T22:22:33.742Z,23.90
2018-08-06T22:25:40.623Z,23.90
2018-08-06T22:28:47.137Z,23.90
2018-08-06T22:35:00.592Z,23.80
2018-08-06T22:41:14.134Z,23.70
2018-08-06T22:44:20.978Z,23.70
2018-08-06T22:47:27.816Z,23.60
2018-08-06T22:53:41.301Z,23.50
2018-08-06T22:56:48.092Z,23.40
2018-08-06T22:59:54.946Z,23.40
2018-08-06T23:06:09.431Z,23.30
2018-08-06T23:12:22.857Z,23.20
2018-08-06T23:15:29.706Z,23.20
2018-08-06T23:18:36.552Z,23.10
2018-08-06T23:21:43.939Z,23.10
2018-08-06T23:24:51.151Z,23.10
2018-08-06T23:37:18.042Z,23.00
2018-08-06T23:43:31.463Z,23.00
2018-08-06T23:46:38.290Z,23.00
2018-08-06T23:49:45.115Z,23.00
2018-08-06T23:52:51.988Z,22.90
2018-08-06T23:55:58.488Z,22.80
2018-08-06T23:59:06.244Z,22.70
